Time;durP1;ratioP1;P1;durP2;ratioP2;P2;SDS_P1;SDS_P2;PMS_P1;PMS_P2;Temp;Humidity;BMP_temperature;BMP_pressure;BME280_temperature;BME280_humidity;BME280_pressure;Samples;Min_cycle;Max_cycle;Signal;HPM_P1;HPM_P2
2021/12/22 00:02:07;;;;;;;6.75;4.45;;;;;;;-1.60;69.50;98135.88;4941139;29;20032;-91
2021/12/22 00:04:39;;;;;;;7.65;4.90;;;;;;;-1.62;69.66;98155.22;4924196;29;20055;-92
2021/12/22 00:07:05;;;;;;;7.03;5.13;;;;;;;-1.82;68.98;98143.97;4922487;29;20050;-94
2021/12/22 00:09:31;;;;;;;6.57;4.47;;;;;;;-1.85;69.09;98138.03;4908870;29;20044;-87
2021/12/22 00:11:58;;;;;;;8.27;5.25;;;;;;;-2.00;69.08;98150.09;4906409;29;20103;-87
2021/12/22 00:14:23;;;;;;;9.07;5.65;;;;;;;-2.15;69.48;98161.28;4905185;29;20048;-87
2021/12/22 00:16:49;;;;;;;9.18;6.05;;;;;;;-2.24;69.54;98152.97;4919573;29;20062;-88
2021/12/22 00:19:15;;;;;;;8.63;5.82;;;;;;;-2.37;69.71;98172.78;4904246;29;20048;-86
2021/12/22 00:21:41;;;;;;;9.57;5.60;;;;;;;-2.55;69.63;98164.03;4919695;29;20135;-93
2021/12/22 00:24:08;;;;;;;6.90;4.97;;;;;;;-2.66;69.94;98165.44;4934112;29;20091;-92
2021/12/22 00:26:34;;;;;;;8.82;5.28;;;;;;;-2.77;69.99;98164.16;4914605;29;20048;-88
2021/12/22 00:29:00;;;;;;;8.73;6.18;;;;;;;-2.82;70.23;98166.13;4904509;29;20052;-86
2021/12/22 00:31:27;;;;;;;7.85;5.80;;;;;;;-2.95;70.34;98162.34;4903077;29;20500;-87
2021/12/22 00:33:55;;;;;;;9.70;5.93;;;;;;;-2.79;70.13;98165.97;4919844;29;20048;-87
2021/12/22 00:36:23;;;;;;;8.52;5.88;;;;;;;-2.91;70.46;98171.75;4936314;29;20055;-89
2021/12/22 00:38:49;;;;;;;7.38;4.90;;;;;;;-2.98;70.13;98165.09;4906588;29;20563;-86
2021/12/22 00:41:16;;;;;;;4.13;3.72;;;;;;;-3.08;70.26;98174.28;4906235;29;20407;-83
2021/12/22 00:43:42;;;;;;;6.38;4.82;;;;;;;-3.27;71.27;98185.53;4937561;29;20503;-92
2021/12/22 00:46:08;;;;;;;6.32;4.20;;;;;;;-3.31;71.30;98173.50;4906744;29;20047;-88
2021/12/22 00:48:34;;;;;;;7.70;4.90;;;;;;;-3.22;71.77;98180.94;4938543;29;20491;-88
2021/12/22 00:51:00;;;;;;;7.90;4.95;;;;;;;-3.37;71.75;98193.81;4938927;29;20056;-88
2021/12/22 00:53:27;;;;;;;7.93;5.72;;;;;;;-3.45;71.94;98202.81;4921764;29;20130;-88
2021/12/22 00:55:53;;;;;;;8.07;4.78;;;;;;;-3.51;72.01;98187.38;4921839;29;20051;-88
2021/12/22 00:58:20;;;;;;;8.82;5.82;;;;;;;-3.66;72.61;98203.69;4922969;29;20084;-86
2021/12/22 01:00:47;;;;;;;11.52;6.35;;;;;;;-3.81;73.16;98188.66;4922531;29;20495;-89
2021/12/22 01:03:14;;;;;;;7.75;5.10;;;;;;;-3.79;73.14;98197.28;4938460;29;20051;-88
2021/12/22 01:05:40;;;;;;;9.23;5.72;;;;;;;-3.92;73.36;98187.31;4921765;29;20531;-88
2021/12/22 01:08:06;;;;;;;9.23;6.07;;;;;;;-3.94;73.05;98199.59;4905750;29;20044;-88
2021/12/22 01:10:32;;;;;;;9.63;6.15;;;;;;;-3.98;72.85;98215.44;4905551;29;20425;-89
2021/12/22 01:13:00;;;;;;;9.35;6.22;;;;;;;-4.20;73.35;98202.38;4938021;29;20046;-88
2021/12/22 01:15:26;;;;;;;8.02;5.07;;;;;;;-4.20;73.41;98213.66;4904645;29;20051;-88
2021/12/22 01:18:03;;;;;;;6.75;4.82;;;;;;;-4.31;73.73;98207.16;4920834;29;20051;-87
2021/12/22 01:20:34;;;;;;;9.15;6.15;;;;;;;-4.33;73.85;98212.44;4936941;29;20036;-89
2021/12/22 01:23:05;;;;;;;10.35;6.43;;;;;;;-4.34;73.66;98209.88;4921248;29;20046;-90
2021/12/22 01:25:33;;;;;;;10.60;6.38;;;;;;;-4.33;73.47;98209.81;4938157;29;20048;-87
2021/12/22 01:27:59;;;;;;;11.63;6.88;;;;;;;-4.24;73.33;98212.09;4938508;29;20032;-89
2021/12/22 01:30:26;;;;;;;10.10;6.53;;;;;;;-4.30;73.34;98206.25;4921240;29;20066;-91
2021/12/22 01:32:55;;;;;;;9.57;5.80;;;;;;;-4.42;73.42;98208.41;4938280;29;20044;-89
2021/12/22 01:35:22;;;;;;;6.30;4.53;;;;;;;-4.56;73.65;98217.66;4905677;29;20067;-89
2021/12/22 01:37:48;;;;;;;6.57;4.82;;;;;;;-4.70;74.70;98219.03;4921086;29;20114;-88
2021/12/22 01:40:14;;;;;;;10.45;6.43;;;;;;;-4.73;74.51;98216.53;4938695;29;20137;-88
2021/12/22 01:42:40;;;;;;;5.28;4.10;;;;;;;-4.80;75.05;98222.88;4906951;29;20138;-89
2021/12/22 01:45:36;;;;;;;8.65;6.13;;;;;;;-4.93;75.14;98212.06;4943485;29;20083;-88
2021/12/22 01:50:50;;;;;;;9.88;5.80;;;;;;;-4.96;75.16;98233.00;4924780;29;20083;-89
2021/12/22 01:53:19;;;;;;;6.88;4.10;;;;;;;-5.05;74.89;98232.47;4904911;29;20476;-88
2021/12/22 01:55:47;;;;;;;7.25;4.30;;;;;;;-5.13;75.13;98238.78;4937576;29;20047;-88
2021/12/22 01:58:13;;;;;;;4.82;2.92;;;;;;;-5.28;75.69;98231.50;4938033;29;20051;-87
2021/12/22 02:00:39;;;;;;;8.20;5.57;;;;;;;-5.36;75.51;98217.91;4924868;29;20036;-87
2021/12/22 02:03:05;;;;;;;6.30;4.38;;;;;;;-5.43;75.27;98226.81;4924369;29;20538;-86
2021/12/22 02:05:31;;;;;;;8.23;5.13;;;;;;;-5.46;75.20;98226.91;4937357;29;20491;-88
2021/12/22 02:08:01;;;;;;;7.75;5.05;;;;;;;-5.51;74.88;98223.63;4905001;29;20048;-85
2021/12/22 02:10:35;;;;;;;;;;;;;;;-5.62;75.46;98227.41;4936963;29;20384;-87
2021/12/22 02:13:02;;;;;;;4.30;3.33;;;;;;;-5.73;75.81;98242.53;4936544;29;19974;-87
2021/12/22 02:15:33;;;;;;;3.70;2.88;;;;;;;-5.71;76.01;98248.56;4920111;29;20078;-87
2021/12/22 02:18:02;;;;;;;5.80;4.15;;;;;;;-5.69;75.75;98238.94;4922783;29;20048;-85
2021/12/22 02:20:29;;;;;;;7.15;4.70;;;;;;;-5.69;75.53;98236.34;4905148;29;20079;-87
2021/12/22 02:22:56;;;;;;;5.50;3.67;;;;;;;-5.74;75.35;98247.81;4920328;29;20392;-86
2021/12/22 02:25:31;;;;;;;6.45;4.55;;;;;;;-5.77;75.22;98243.53;4935550;29;20050;-86
2021/12/22 02:27:57;;;;;;;6.05;4.65;;;;;;;-5.83;75.18;98242.88;4935313;29;20488;-84
2021/12/22 02:30:26;;;;;;;2.42;2.20;;;;;;;-5.83;75.13;98245.47;4936645;29;20055;-87
2021/12/22 02:35:38;;;;;;;3.78;2.97;;;;;;;-6.05;75.50;98253.16;4937881;29;20065;-88
2021/12/22 02:38:07;;;;;;;5.03;3.50;;;;;;;-6.08;75.50;98263.66;4905119;29;20051;-86
2021/12/22 02:40:33;;;;;;;3.35;2.85;;;;;;;-6.18;75.95;98252.66;4935890;29;20050;-88
2021/12/22 02:43:05;;;;;;;6.30;4.20;;;;;;;-6.09;75.85;98254.13;4935747;29;20054;-88
2021/12/22 02:45:33;;;;;;;3.58;2.63;;;;;;;-6.18;75.76;98261.31;4936147;29;20059;-90
2021/12/22 02:48:00;;;;;;;3.45;2.80;;;;;;;-6.14;75.89;98280.28;4920358;29;20131;-89
2021/12/22 02:50:26;;;;;;;2.92;2.25;;;;;;;-6.15;75.93;98276.84;4935785;29;20122;-89
2021/12/22 02:55:30;;;;;;;6.10;3.63;;;;;;;-6.08;75.82;98274.06;4905347;29;20518;-90
2021/12/22 02:58:00;;;;;;;4.95;3.30;;;;;;;-6.09;75.49;98272.34;4905174;29;20090;-87
2021/12/22 03:00:48;;;;;;;;;;;;;;;-6.15;75.74;98279.44;4936890;29;20074;-90
2021/12/22 03:03:50;;;;;;;5.10;3.30;;;;;;;-6.26;75.57;98285.84;4907049;29;19926;-89
2021/12/22 03:06:25;;;;;;;3.92;3.25;;;;;;;-6.22;75.67;98288.31;4936304;29;20522;-89
2021/12/22 03:08:51;;;;;;;5.40;3.67;;;;;;;-6.23;75.61;98290.97;4936022;29;20126;-92
2021/12/22 03:11:17;;;;;;;4.97;3.75;;;;;;;-6.22;75.35;98275.31;4937349;29;20079;-89
2021/12/22 03:13:43;;;;;;;5.85;4.00;;;;;;;-6.22;75.01;98277.91;4919268;29;20047;-89
2021/12/22 03:16:09;;;;;;;5.50;3.90;;;;;;;-6.24;74.97;98286.66;4904463;29;20567;-90
2021/12/22 03:18:35;;;;;;;5.07;2.95;;;;;;;-6.24;74.94;98279.72;4938203;29;20044;-89
2021/12/22 03:21:14;;;;;;;4.18;3.17;;;;;;;-6.26;74.85;98281.50;4942673;29;20126;-87
2021/12/22 03:23:41;;;;;;;5.05;3.70;;;;;;;-6.39;75.10;98291.41;4950161;29;20520;-88
2021/12/22 03:26:07;;;;;;;7.30;4.07;;;;;;;-6.42;75.08;98275.91;4956257;29;20126;-86
2021/12/22 03:28:33;;;;;;;7.88;4.93;;;;;;;-6.39;75.23;98290.56;4955734;29;20098;-88
2021/12/22 03:30:59;;;;;;;5.88;4.47;;;;;;;-6.41;74.88;98293.19;4955242;29;20474;-87
2021/12/22 03:33:25;;;;;;;4.32;3.20;;;;;;;-6.45;74.49;98314.97;4922379;29;20057;-87
2021/12/22 03:35:52;;;;;;;4.32;3.05;;;;;;;-6.53;74.22;98290.97;4932189;29;20083;-86
2021/12/22 03:38:18;;;;;;;8.88;5.20;;;;;;;-6.54;74.33;98285.78;4957211;28;20075;-88
2021/12/22 03:40:43;;;;;;;5.18;3.95;;;;;;;-6.55;74.21;98299.69;4961357;29;20043;-88
2021/12/22 03:43:10;;;;;;;10.23;5.47;;;;;;;-6.59;73.91;98283.31;4964613;29;20074;-90
2021/12/22 03:45:35;;;;;;;7.38;5.03;;;;;;;-6.50;73.79;98303.03;4973000;29;20054;-90
2021/12/22 03:48:02;;;;;;;7.32;5.40;;;;;;;-6.53;73.06;98308.31;4972294;29;20078;-89
2021/12/22 03:50:28;;;;;;;7.03;5.25;;;;;;;-6.63;72.83;98312.91;4933435;29;20062;-89
2021/12/22 03:52:54;;;;;;;6.95;5.00;;;;;;;-6.68;72.85;98304.38;4964650;29;20055;-90
2021/12/22 03:55:20;;;;;;;6.78;5.20;;;;;;;-6.85;72.48;98312.63;4965371;29;20039;-89
2021/12/22 03:57:46;;;;;;;7.18;5.43;;;;;;;-6.93;72.62;98309.38;4944511;29;20035;-91
2021/12/22 04:00:13;;;;;;;6.63;5.10;;;;;;;-7.11;72.49;98303.78;4937865;29;20078;-91
2021/12/22 04:02:39;;;;;;;6.50;4.93;;;;;;;-7.14;72.10;98301.25;4945078;29;20075;-89
2021/12/22 04:05:05;;;;;;;6.60;5.20;;;;;;;-7.17;72.19;98306.53;4911733;29;20532;-84
2021/12/22 04:07:32;;;;;;;8.27;5.38;;;;;;;-7.18;72.60;98328.19;4941985;29;20562;-85
2021/12/22 04:09:58;;;;;;;8.07;6.22;;;;;;;-7.24;72.41;98319.72;4896980;29;20043;-90
2021/12/22 04:12:24;;;;;;;8.45;5.85;;;;;;;-7.23;72.17;98324.84;4943607;29;20077;-90
2021/12/22 04:14:50;;;;;;;9.32;6.18;;;;;;;-7.30;72.21;98323.28;4963470;29;20580;-92
2021/12/22 04:17:16;;;;;;;8.23;5.68;;;;;;;-7.31;72.01;98320.75;4929351;29;20039;-90
2021/12/22 04:19:42;;;;;;;8.25;5.90;;;;;;;-7.30;72.07;98318.09;4959774;29;20404;-86
2021/12/22 04:22:09;;;;;;;9.85;6.80;;;;;;;-7.35;72.08;98330.34;4957914;29;20426;-90
2021/12/22 04:24:34;;;;;;;8.73;6.20;;;;;;;-7.41;72.04;98325.28;4941019;29;20454;-83
2021/12/22 04:27:01;;;;;;;9.73;6.57;;;;;;;-7.42;71.03;98323.59;4958627;29;20578;-91
2021/12/22 04:29:27;;;;;;;11.43;7.03;;;;;;;-7.55;70.51;98327.41;4909445;29;20086;-90
2021/12/22 04:31:53;;;;;;;11.98;7.43;;;;;;;-7.50;70.73;98328.13;4958211;29;20055;-89
2021/12/22 04:34:19;;;;;;;9.98;7.07;;;;;;;-7.50;70.04;98334.16;4910183;28;20074;-79
2021/12/22 04:36:45;;;;;;;15.70;7.88;;;;;;;-7.51;69.83;98336.81;4945115;28;20058;-86
2021/12/22 04:39:11;;;;;;;13.43;7.15;;;;;;;-7.53;69.36;98339.44;4943857;28;20133;-77
2021/12/22 04:41:37;;;;;;;10.73;7.30;;;;;;;-7.53;69.17;98330.78;4959858;28;20070;-84
2021/12/22 04:44:03;;;;;;;8.65;6.70;;;;;;;-7.55;68.81;98340.38;4912349;28;20455;-89
2021/12/22 04:46:29;;;;;;;13.30;7.97;;;;;;;-7.51;68.83;98347.19;4959592;28;20571;-91
2021/12/22 04:48:55;;;;;;;14.27;8.15;;;;;;;-7.49;68.44;98343.66;4928188;28;20129;-83
2021/12/22 04:51:29;;;;;;;11.63;7.32;;;;;;;-7.46;68.85;98351.38;4959294;28;20104;-87
2021/12/22 04:54:17;;;;;;;13.88;8.70;;;;;;;-7.47;68.35;98341.88;4930189;28;20051;-86
2021/12/22 04:56:44;;;;;;;23.13;9.15;;;;;;;-7.42;67.88;98353.00;4915788;28;20042;-81
2021/12/22 04:59:10;;;;;;;12.90;7.85;;;;;;;-7.40;67.49;98355.59;4977875;28;20062;-82
2021/12/22 05:01:36;;;;;;;12.73;7.82;;;;;;;-7.44;67.77;98359.16;4928456;28;20042;-84
2021/12/22 05:04:02;;;;;;;8.98;6.25;;;;;;;-7.32;67.16;98374.41;4929185;28;20410;-89
2021/12/22 05:06:28;;;;;;;13.40;7.97;;;;;;;-7.37;66.87;98377.13;4931455;28;20097;-89
2021/12/22 05:08:54;;;;;;;13.02;6.53;;;;;;;-7.31;66.68;98378.72;4944964;28;20142;-88
2021/12/22 05:11:20;;;;;;;12.35;7.20;;;;;;;-7.27;66.83;98374.31;4912509;28;20145;-87
2021/12/22 05:13:46;;;;;;;9.65;6.20;;;;;;;-7.29;65.87;98373.50;4927427;28;20051;-92
2021/12/22 05:16:19;;;;;;;11.60;7.18;;;;;;;-7.28;66.04;98380.41;4959699;28;20038;-89
2021/12/22 05:21:33;;;;;;;11.35;6.35;;;;;;;-7.22;65.66;98383.69;4935311;28;20407;-88
2021/12/22 05:23:59;;;;;;;14.32;7.60;;;;;;;-7.22;65.82;98386.31;4982254;28;20414;-86
2021/12/22 05:26:28;;;;;;;11.48;6.68;;;;;;;-7.14;65.64;98402.53;4927266;28;20125;-86
2021/12/22 05:28:54;;;;;;;9.95;5.30;;;;;;;-7.15;65.20;98395.63;4959691;28;20039;-89
2021/12/22 05:31:24;;;;;;;10.13;6.38;;;;;;;-7.21;64.69;98387.16;4975564;28;20059;-86
2021/12/22 05:33:50;;;;;;;9.50;6.45;;;;;;;-7.13;65.26;98399.03;4944432;28;20047;-88
2021/12/22 05:36:16;;;;;;;8.48;5.40;;;;;;;-7.33;64.80;98398.69;4912856;28;20055;-91
2021/12/22 05:38:42;;;;;;;8.25;5.35;;;;;;;-7.19;65.06;98406.97;4929296;28;20070;-91
2021/12/22 05:41:08;;;;;;;5.75;3.63;;;;;;;-7.17;64.70;98415.59;4977377;28;20141;-80
2021/12/22 05:43:34;;;;;;;11.25;5.75;;;;;;;-7.11;64.67;98414.59;4956712;28;20186;-82
2021/12/22 05:46:00;;;;;;;12.13;6.13;;;;;;;-7.14;64.66;98418.13;4893173;29;20049;-81
2021/12/22 05:48:27;;;;;;;15.00;6.28;;;;;;;-7.13;64.33;98414.63;4881365;29;20039;-90
2021/12/22 05:50:57;;;;;;;10.70;5.22;;;;;;;-7.30;63.96;98421.94;4894626;29;20058;-91
2021/12/22 05:53:26;;;;;;;9.32;6.15;;;;;;;-7.27;64.41;98429.69;4959736;29;20042;-86
2021/12/22 05:55:53;;;;;;;6.90;4.55;;;;;;;-7.36;64.21;98429.91;4947597;29;20073;-88
2021/12/22 05:58:19;;;;;;;10.23;6.43;;;;;;;-7.32;64.35;98436.72;4922800;29;20491;-86
2021/12/22 06:00:45;;;;;;;17.05;7.95;;;;;;;-7.26;64.20;98436.56;4948723;29;20398;-87
2021/12/22 06:03:11;;;;;;;13.90;8.00;;;;;;;-7.19;64.07;98435.53;4916223;29;20126;-90
2021/12/22 06:05:37;;;;;;;16.60;8.23;;;;;;;-7.16;64.23;98422.50;4886217;29;20082;-88
2021/12/22 06:08:04;;;;;;;16.20;8.38;;;;;;;-7.18;63.34;98439.88;4932749;29;20043;-89
2021/12/22 06:10:31;;;;;;;13.38;8.30;;;;;;;-7.19;63.66;98430.34;4947621;29;20051;-84
2021/12/22 06:12:57;;;;;;;12.50;7.65;;;;;;;-7.26;63.19;98446.94;4930975;29;20054;-87
2021/12/22 06:15:23;;;;;;;13.32;7.20;;;;;;;-7.15;63.39;98451.91;4916696;29;20047;-88
2021/12/22 06:17:54;;;;;;;10.07;6.50;;;;;;;-7.09;63.37;98456.97;4900877;29;20103;-89
2021/12/22 06:20:20;;;;;;;11.95;6.68;;;;;;;-7.04;62.80;98456.84;4947139;29;20423;-84
2021/12/22 06:22:46;;;;;;;11.70;6.53;;;;;;;-7.05;62.78;98456.00;4912163;29;20086;-90
2021/12/22 06:25:12;;;;;;;8.50;5.95;;;;;;;-7.02;62.32;98462.88;4926871;29;20545;-88
2021/12/22 06:27:38;;;;;;;10.20;6.38;;;;;;;-6.97;62.75;98461.00;4926460;29;20047;-90
2021/12/22 06:30:04;;;;;;;9.98;5.97;;;;;;;-6.86;62.90;98461.63;4940700;29;20097;-89
2021/12/22 06:32:30;;;;;;;31.08;13.27;;;;;;;-6.74;62.95;98461.31;4959203;29;20040;-91
2021/12/22 06:34:56;;;;;;;9.88;6.50;;;;;;;-6.69;62.27;98451.66;4942675;29;20534;-87
2021/12/22 06:37:23;;;;;;;10.02;6.25;;;;;;;-6.64;62.20;98468.00;4956528;28;20255;-92
2021/12/22 06:39:49;;;;;;;11.95;7.78;;;;;;;-6.49;62.68;98471.09;4909731;29;20049;-91
2021/12/22 06:42:15;;;;;;;16.60;6.93;;;;;;;-6.36;62.09;98469.88;4956647;28;20122;-89
2021/12/22 06:44:41;;;;;;;10.38;6.97;;;;;;;-6.34;62.53;98449.91;4923006;29;20159;-88
2021/12/22 06:47:10;;;;;;;12.23;6.93;;;;;;;-6.17;62.09;98478.94;4923470;29;20083;-88
2021/12/22 06:49:37;;;;;;;15.85;7.03;;;;;;;-6.24;61.42;98469.59;4957086;29;20490;-85
2021/12/22 06:52:03;;;;;;;15.80;6.72;;;;;;;-6.23;61.58;98467.84;4922518;29;20047;-86
2021/12/22 06:54:29;;;;;;;15.70;7.03;;;;;;;-6.24;61.07;98464.38;4924865;29;20043;-91
2021/12/22 06:56:55;;;;;;;10.57;7.15;;;;;;;-6.15;61.44;98471.06;4938446;29;20095;-87
2021/12/22 06:59:22;;;;;;;11.38;7.05;;;;;;;-6.04;61.67;98483.78;4939272;29;20047;-89
2021/12/22 07:01:50;;;;;;;10.43;6.63;;;;;;;-5.95;61.53;98468.78;4909838;29;20082;-88
2021/12/22 07:04:16;;;;;;;13.40;6.93;;;;;;;-5.84;60.86;98476.25;4957110;29;20057;-90
2021/12/22 07:06:42;;;;;;;10.68;7.28;;;;;;;-5.87;60.59;98481.53;4922422;29;20046;-90
2021/12/22 07:09:09;;;;;;;11.30;6.82;;;;;;;-5.84;59.93;98478.00;4909981;29;20554;-89
2021/12/22 07:11:35;;;;;;;10.55;6.82;;;;;;;-5.90;60.03;98482.50;4909991;29;20156;-92
2021/12/22 07:14:02;;;;;;;12.95;6.90;;;;;;;-5.78;60.25;98483.91;4925095;29;20376;-89
2021/12/22 07:16:28;;;;;;;13.00;7.55;;;;;;;-5.70;59.96;98478.47;4908548;29;20047;-90
2021/12/22 07:18:56;;;;;;;20.50;7.68;;;;;;;-5.80;59.52;98482.22;4925432;29;20141;-86
2021/12/22 07:21:23;;;;;;;13.25;7.50;;;;;;;-5.91;59.16;98487.72;4924242;29;20047;-83
2021/12/22 07:23:49;;;;;;;10.38;6.60;;;;;;;-5.96;60.18;98487.03;4940161;29;20055;-85
2021/12/22 07:26:16;;;;;;;11.60;7.00;;;;;;;-5.81;60.04;98490.94;4893103;29;20090;-85
2021/12/22 07:28:43;;;;;;;11.50;7.13;;;;;;;-5.70;59.76;98500.16;4890585;29;20098;-89
2021/12/22 07:31:09;;;;;;;12.80;7.05;;;;;;;-5.59;59.77;98501.59;4927701;29;20047;-89
2021/12/22 07:33:35;;;;;;;11.38;7.10;;;;;;;-5.43;59.35;98505.47;4912161;29;20046;-89
2021/12/22 07:36:05;;;;;;;11.90;7.28;;;;;;;-5.43;58.35;98497.66;4912023;29;20058;-90
2021/12/22 07:38:59;;;;;;;10.65;7.25;;;;;;;-5.44;58.82;98490.75;4930181;29;20034;-90
2021/12/22 07:41:26;;;;;;;11.32;7.03;;;;;;;-5.39;58.35;98489.69;4956062;29;20062;-90
2021/12/22 07:43:52;;;;;;;25.92;13.82;;;;;;;-5.33;58.49;98483.47;4932137;29;20047;-88
2021/12/22 07:46:18;;;;;;;8.73;6.35;;;;;;;-5.22;58.50;98501.38;4936950;29;20055;-91
2021/12/22 07:48:44;;;;;;;11.23;7.22;;;;;;;-5.18;58.23;98508.22;4967593;29;20050;-88
2021/12/22 07:51:10;;;;;;;11.73;7.65;;;;;;;-5.12;57.81;98505.41;4937145;29;20051;-90
2021/12/22 07:53:38;;;;;;;14.38;7.55;;;;;;;-5.03;58.05;98501.69;4967652;28;20043;-89
2021/12/22 07:56:04;;;;;;;9.55;7.32;;;;;;;-4.85;57.87;98505.44;4900660;29;20047;-83
2021/12/22 07:58:30;;;;;;;9.98;6.85;;;;;;;-4.77;56.96;98503.47;4927903;29;20051;-88
2021/12/22 08:00:57;;;;;;;11.38;6.70;;;;;;;-4.65;56.75;98501.31;4911922;29;20047;-90
2021/12/22 08:03:23;;;;;;;11.27;7.07;;;;;;;-4.65;56.79;98501.31;4893400;29;20489;-88
2021/12/22 08:05:49;;;;;;;10.88;7.32;;;;;;;-4.59;56.44;98499.41;4939033;29;20054;-89
2021/12/22 08:08:17;;;;;;;11.68;6.82;;;;;;;-4.58;56.17;98514.19;4955914;28;20050;-90
2021/12/22 08:10:43;;;;;;;10.52;6.75;;;;;;;-4.50;55.86;98507.78;4907291;29;20050;-88
2021/12/22 08:13:09;;;;;;;10.77;7.25;;;;;;;-4.41;55.32;98511.84;4906663;29;20083;-89
2021/12/22 08:15:36;;;;;;;11.40;6.82;;;;;;;-4.48;55.71;98507.72;4906927;29;20046;-88
2021/12/22 08:18:04;;;;;;;9.77;6.37;;;;;;;-4.43;54.81;98511.06;4956748;29;20615;-89
2021/12/22 08:20:30;;;;;;;12.63;7.80;;;;;;;-4.37;55.26;98512.59;4910103;29;20039;-91
2021/12/22 08:22:57;;;;;;;10.23;6.85;;;;;;;-4.30;55.09;98514.97;4913805;28;20049;-89
2021/12/22 08:25:23;;;;;;;10.27;7.28;;;;;;;-4.29;55.53;98519.25;4931786;29;20058;-89
2021/12/22 08:27:49;;;;;;;12.40;7.03;;;;;;;-4.01;55.88;98529.63;4941615;29;20133;-88
2021/12/22 08:30:15;;;;;;;9.75;7.00;;;;;;;-3.86;54.99;98523.03;4946966;29;20071;-91
2021/12/22 08:32:44;;;;;;;11.00;7.28;;;;;;;-3.97;54.38;98530.38;4911308;29;20111;-87
2021/12/22 08:35:13;;;;;;;12.40;7.57;;;;;;;-3.96;54.01;98529.47;4925345;29;20063;-89
2021/12/22 08:40:23;;;;;;;11.18;6.93;;;;;;;-3.84;53.18;98515.97;4914269;29;20055;-88
2021/12/22 08:42:49;;;;;;;9.80;7.13;;;;;;;-3.82;54.18;98515.94;4909235;29;20089;-87
2021/12/22 08:45:17;;;;;;;12.68;7.53;;;;;;;-3.53;54.61;98522.75;4911430;29;20043;-90
2021/12/22 08:47:44;;;;;;;10.27;6.55;;;;;;;-3.45;53.42;98510.25;4927685;29;20047;-88
2021/12/22 08:50:11;;;;;;;10.73;7.35;;;;;;;-3.22;53.92;98507.63;4941389;29;20057;-90
2021/12/22 08:52:37;;;;;;;11.60;7.32;;;;;;;-3.02;53.36;98519.09;4910899;29;20098;-90
2021/12/22 08:55:06;;;;;;;15.07;7.40;;;;;;;-2.88;52.76;98515.94;4925953;29;20410;-92
2021/12/22 08:57:32;;;;;;;11.30;7.60;;;;;;;-3.24;52.30;98512.06;4924534;29;20039;-91
2021/12/22 08:59:58;;;;;;;10.85;7.25;;;;;;;-3.60;52.63;98509.06;4925271;29;20153;-90
2021/12/22 09:02:24;;;;;;;10.65;7.40;;;;;;;-3.82;53.97;98516.78;4895305;29;20522;-91
2021/12/22 09:04:50;;;;;;;12.63;7.53;;;;;;;-3.79;54.65;98519.31;4942903;29;20067;-88
2021/12/22 09:07:16;;;;;;;11.00;7.53;;;;;;;-3.89;54.43;98510.09;4956829;29;20093;-91
2021/12/22 09:09:44;;;;;;;10.65;6.65;;;;;;;-4.12;53.27;98525.69;4910404;29;20093;-93
2021/12/22 09:12:10;;;;;;;11.75;7.30;;;;;;;-4.26;54.43;98521.78;4910034;29;20043;-89
2021/12/22 09:14:37;;;;;;;10.48;6.25;;;;;;;-4.30;54.71;98514.97;4909406;29;20047;-93
2021/12/22 09:17:03;;;;;;;9.20;6.30;;;;;;;-4.35;54.58;98522.09;4911037;29;20053;-93
2021/12/22 09:19:29;;;;;;;12.60;6.38;;;;;;;-4.32;54.84;98514.16;4910189;29;20096;-92
2021/12/22 09:21:55;;;;;;;11.38;6.88;;;;;;;-4.50;54.97;98535.63;4893913;29;20043;-90
2021/12/22 09:24:21;;;;;;;10.65;7.03;;;;;;;-4.32;55.67;98529.81;4914707;29;20049;-92
2021/12/22 09:26:47;;;;;;;9.07;6.50;;;;;;;-4.13;56.00;98535.28;4946902;29;20114;-91
2021/12/22 09:29:13;;;;;;;11.77;7.75;;;;;;;-4.03;55.23;98533.19;4908818;29;20137;-93
2021/12/22 09:31:39;;;;;;;10.95;7.15;;;;;;;-4.02;54.97;98527.09;4926068;29;20047;-89
2021/12/22 09:34:08;;;;;;;13.20;7.43;;;;;;;-4.07;54.91;98528.97;4925538;29;20043;-86
2021/12/22 09:36:34;;;;;;;10.45;7.05;;;;;;;-4.21;55.27;98540.75;4961670;28;20291;-89
2021/12/22 09:39:00;;;;;;;11.20;7.35;;;;;;;-4.09;55.89;98541.25;4963629;29;20051;-92
2021/12/22 09:41:26;;;;;;;18.38;8.13;;;;;;;-3.92;55.60;98547.56;4894527;29;20142;-92
2021/12/22 09:43:55;;;;;;;11.45;7.13;;;;;;;-3.91;55.81;98538.03;4958706;29;20051;-90
2021/12/22 09:46:23;;;;;;;14.43;8.23;;;;;;;-3.93;55.58;98535.44;4940641;29;20051;-91
2021/12/22 09:48:53;;;;;;;12.52;7.88;;;;;;;-3.87;55.81;98542.22;4956289;29;20043;-92
2021/12/22 09:53:50;;;;;;;10.77;7.57;;;;;;;-3.88;55.67;98543.09;4925781;29;20042;-91
2021/12/22 09:56:21;;;;;;;12.55;8.45;;;;;;;-3.95;56.46;98550.31;4940541;29;20047;-93
2021/12/22 09:58:47;;;;;;;12.65;8.43;;;;;;;-3.95;56.46;98549.44;4924498;29;20051;-90
2021/12/22 10:01:13;;;;;;;14.38;9.18;;;;;;;-3.87;56.82;98542.22;4944440;29;20063;-91
2021/12/22 10:03:39;;;;;;;12.38;7.82;;;;;;;-3.73;56.36;98550.41;4960206;29;20046;-91
2021/12/22 10:06:07;;;;;;;11.57;7.60;;;;;;;-3.64;56.14;98553.63;4958342;29;20043;-91
2021/12/22 10:08:36;;;;;;;12.65;7.28;;;;;;;-3.68;55.64;98551.13;4924051;29;20125;-88
2021/12/22 10:11:04;;;;;;;10.45;7.28;;;;;;;-3.74;55.79;98555.69;4956405;29;20106;-94
2021/12/22 10:13:30;;;;;;;10.48;7.40;;;;;;;-3.81;55.82;98560.28;4958482;29;20059;-93
2021/12/22 10:15:57;;;;;;;20.92;7.88;;;;;;;-3.80;55.92;98569.84;4927176;29;20042;-92
2021/12/22 10:18:24;;;;;;;13.05;8.68;;;;;;;-3.88;56.20;98579.66;4940970;29;20051;-92
2021/12/22 10:20:54;;;;;;;10.45;7.30;;;;;;;-3.96;56.16;98585.13;4959338;28;20039;-92
2021/12/22 10:23:30;;;;;;;12.88;7.80;;;;;;;-4.07;56.38;98578.56;4911880;29;20138;-91
2021/12/22 10:26:04;;;;;;;13.63;7.78;;;;;;;-4.11;56.80;98587.41;4928343;29;20151;-92
2021/12/22 10:28:43;;;;;;;15.85;9.30;;;;;;;-4.16;57.20;98584.97;4924059;29;20534;-92
2021/12/22 10:31:09;;;;;;;15.75;7.72;;;;;;;-4.15;57.21;98592.72;4941076;29;20140;-92
2021/12/22 10:33:38;;;;;;;17.50;8.13;;;;;;;-4.13;57.47;98579.66;4956189;29;20058;-93
2021/12/22 10:36:15;;;;;;;14.00;8.60;;;;;;;-4.06;57.50;98575.06;4956484;28;20531;-92
2021/12/22 10:38:53;;;;;;;14.95;9.32;;;;;;;-4.22;57.46;98574.72;4939134;29;20077;-90
2021/12/22 10:41:21;;;;;;;13.63;8.13;;;;;;;-4.21;57.98;98576.44;4923767;29;20057;-91
2021/12/22 10:43:48;;;;;;;13.27;8.63;;;;;;;-4.16;58.14;98575.38;4923195;29;20055;-93
2021/12/22 10:46:30;;;;;;;14.18;8.90;;;;;;;-4.39;57.89;98583.09;4923608;29;20041;-92
2021/12/22 10:49:15;;;;;;;15.10;9.25;;;;;;;-4.35;58.65;98584.72;4927403;29;20066;-87
2021/12/22 10:51:43;;;;;;;19.95;9.80;;;;;;;-4.24;58.72;98576.53;4923029;29;20047;-87
2021/12/22 10:54:11;;;;;;;15.70;8.90;;;;;;;-4.25;58.97;98580.91;4892265;29;20414;-83
2021/12/22 10:56:47;;;;;;;18.77;10.02;;;;;;;-4.30;58.64;98577.56;4907261;29;20083;-87
2021/12/22 10:59:18;;;;;;;14.27;9.05;;;;;;;-4.21;58.69;98581.66;4908792;29;20503;-88
2021/12/22 11:01:54;;;;;;;14.88;9.52;;;;;;;-4.30;58.96;98590.63;4907747;29;20054;-86
2021/12/22 11:04:25;;;;;;;15.32;9.88;;;;;;;-4.24;58.95;98595.66;4925069;29;20583;-88
2021/12/22 11:06:53;;;;;;;17.92;8.70;;;;;;;-4.37;58.71;98586.50;4943143;29;20102;-83
2021/12/22 11:09:20;;;;;;;15.13;9.13;;;;;;;-4.15;62.20;98599.72;4955218;29;20046;-86
2021/12/22 11:11:51;;;;;;;16.92;9.63;;;;;;;-4.42;59.87;98598.84;4929640;29;20047;-90
2021/12/22 11:14:25;;;;;;;16.60;8.27;;;;;;;-4.62;60.03;98598.63;4929446;29;20052;-81
2021/12/22 11:17:00;;;;;;;17.38;10.43;;;;;;;-4.47;62.93;98592.94;4936483;29;20091;-83
2021/12/22 11:19:37;;;;;;;17.75;9.10;;;;;;;-4.57;61.16;98588.88;4922616;29;20047;-89
2021/12/22 11:22:15;;;;;;;16.00;8.93;;;;;;;-4.68;60.93;98582.25;4935560;29;20514;-84
2021/12/22 11:24:46;;;;;;;17.27;9.50;;;;;;;-4.79;61.00;98599.97;4921199;29;20043;-85
2021/12/22 11:27:17;;;;;;;18.42;10.52;;;;;;;-4.91;61.26;98600.34;4931711;29;20139;-88
2021/12/22 11:29:46;;;;;;;24.15;11.07;;;;;;;-4.86;61.19;98603.66;4924715;29;20075;-78
2021/12/22 11:32:13;;;;;;;16.90;10.52;;;;;;;-4.95;61.76;98598.72;4888367;29;20106;-83
2021/12/22 11:34:40;;;;;;;17.40;10.70;;;;;;;-4.93;62.07;98605.63;4872828;29;20082;-87
2021/12/22 11:37:09;;;;;;;21.23;11.60;;;;;;;-5.02;62.21;98597.19;4937656;29;20467;-86
2021/12/22 11:39:35;;;;;;;18.13;11.38;;;;;;;-5.02;62.38;98597.19;4954645;28;20098;-83
2021/12/22 11:42:04;;;;;;;17.42;10.25;;;;;;;-4.92;62.10;98598.66;4937936;29;20525;-87
2021/12/22 11:44:31;;;;;;;22.73;11.02;;;;;;;-5.08;62.29;98593.00;4954528;29;20410;-81
2021/12/22 11:46:59;;;;;;;20.52;11.13;;;;;;;-5.18;62.56;98597.63;4939467;29;20155;-84
2021/12/22 11:49:25;;;;;;;23.40;13.13;;;;;;;-5.40;62.98;98580.91;4956724;29;20043;-83